sensor_id;sensor_type;location;lat;lon;timestamp;temperature;humidity
51988;DHT22;38003;52.012;4.346;2023-01-10T00:01:35;9.90;68.80
51988;DHT22;38003;52.012;4.346;2023-01-10T00:04:03;10.00;68.80
51988;DHT22;38003;52.012;4.346;2023-01-10T00:06:32;10.00;68.80
51988;DHT22;38003;52.012;4.346;2023-01-10T00:09:00;10.10;68.80
51988;DHT22;38003;52.012;4.346;2023-01-10T00:11:28;10.20;69.00
51988;DHT22;38003;52.012;4.346;2023-01-10T00:14:13;10.10;68.80
51988;DHT22;38003;52.012;4.346;2023-01-10T00:16:41;10.20;68.70
51988;DHT22;38003;52.012;4.346;2023-01-10T00:19:09;10.20;68.70
51988;DHT22;38003;52.012;4.346;2023-01-10T00:21:38;10.20;68.80
51988;DHT22;38003;52.012;4.346;2023-01-10T00:24:06;10.10;68.80
51988;DHT22;38003;52.012;4.346;2023-01-10T00:26:43;10.20;68.80
51988;DHT22;38003;52.012;4.346;2023-01-10T00:29:14;10.10;68.90
51988;DHT22;38003;52.012;4.346;2023-01-10T00:31:42;10.20;68.90
51988;DHT22;38003;52.012;4.346;2023-01-10T00:34:10;10.30;68.90
51988;DHT22;38003;52.012;4.346;2023-01-10T00:36:39;10.40;68.80
51988;DHT22;38003;52.012;4.346;2023-01-10T00:39:07;10.40;68.70
51988;DHT22;38003;52.012;4.346;2023-01-10T00:41:38;10.40;68.30
51988;DHT22;38003;52.012;4.346;2023-01-10T00:44:24;10.20;68.50
51988;DHT22;38003;52.012;4.346;2023-01-10T00:46:52;10.30;68.80
51988;DHT22;38003;52.012;4.346;2023-01-10T00:49:20;10.30;68.70
51988;DHT22;38003;52.012;4.346;2023-01-10T00:51:50;10.20;68.70
51988;DHT22;38003;52.012;4.346;2023-01-10T00:54:17;10.20;68.80
51988;DHT22;38003;52.012;4.346;2023-01-10T00:56:45;10.30;68.80
51988;DHT22;38003;52.012;4.346;2023-01-10T00:59:13;10.40;69.00
51988;DHT22;38003;52.012;4.346;2023-01-10T01:01:41;10.40;69.00
51988;DHT22;38003;52.012;4.346;2023-01-10T01:04:09;10.30;68.80
51988;DHT22;38003;52.012;4.346;2023-01-10T01:06:37;10.30;68.80
51988;DHT22;38003;52.012;4.346;2023-01-10T01:09:06;10.60;68.80
51988;DHT22;38003;52.012;4.346;2023-01-10T01:11:34;10.50;69.20
51988;DHT22;38003;52.012;4.346;2023-01-10T01:14:02;10.40;68.60
51988;DHT22;38003;52.012;4.346;2023-01-10T01:16:30;10.30;68.80
51988;DHT22;38003;52.012;4.346;2023-01-10T01:18:58;10.30;69.00
51988;DHT22;38003;52.012;4.346;2023-01-10T01:21:26;10.30;69.00
51988;DHT22;38003;52.012;4.346;2023-01-10T01:23:54;10.30;69.00
51988;DHT22;38003;52.012;4.346;2023-01-10T01:26:24;10.30;69.00
51988;DHT22;38003;52.012;4.346;2023-01-10T01:28:52;10.30;68.80
51988;DHT22;38003;52.012;4.346;2023-01-10T01:31:20;10.40;68.90
51988;DHT22;38003;52.012;4.346;2023-01-10T01:33:49;10.50;68.70
51988;DHT22;38003;52.012;4.346;2023-01-10T01:36:17;10.30;68.70
51988;DHT22;38003;52.012;4.346;2023-01-10T01:38:45;10.30;68.70
51988;DHT22;38003;52.012;4.346;2023-01-10T01:41:13;10.20;68.90
51988;DHT22;38003;52.012;4.346;2023-01-10T01:44:01;10.30;69.00
51988;DHT22;38003;52.012;4.346;2023-01-10T01:46:30;10.30;69.00
51988;DHT22;38003;52.012;4.346;2023-01-10T01:49:01;10.30;69.00
51988;DHT22;38003;52.012;4.346;2023-01-10T01:51:32;10.40;69.00
51988;DHT22;38003;52.012;4.346;2023-01-10T01:54:02;10.30;68.80
51988;DHT22;38003;52.012;4.346;2023-01-10T01:56:35;10.20;68.90
51988;DHT22;38003;52.012;4.346;2023-01-10T01:59:08;10.30;69.00
51988;DHT22;38003;52.012;4.346;2023-01-10T02:01:39;10.40;69.00
51988;DHT22;38003;52.012;4.346;2023-01-10T02:04:12;10.30;69.00
51988;DHT22;38003;52.012;4.346;2023-01-10T02:06:44;10.30;69.00
51988;DHT22;38003;52.012;4.346;2023-01-10T02:09:17;10.30;68.80
51988;DHT22;38003;52.012;4.346;2023-01-10T02:11:47;10.30;68.80
51988;DHT22;38003;52.012;4.346;2023-01-10T02:14:18;10.30;68.80
51988;DHT22;38003;52.012;4.346;2023-01-10T02:16:47;10.30;68.80
51988;DHT22;38003;52.012;4.346;2023-01-10T02:19:22;10.30;68.60
51988;DHT22;38003;52.012;4.346;2023-01-10T02:22:20;10.40;68.70
51988;DHT22;38003;52.012;4.346;2023-01-10T02:28:06;10.40;68.50
51988;DHT22;38003;52.012;4.346;2023-01-10T02:30:58;10.40;68.70
51988;DHT22;38003;52.012;4.346;2023-01-10T02:33:37;10.30;68.80
51988;DHT22;38003;52.012;4.346;2023-01-10T02:36:17;10.30;68.90
51988;DHT22;38003;52.012;4.346;2023-01-10T02:38:53;10.40;68.90
51988;DHT22;38003;52.012;4.346;2023-01-10T02:41:30;10.40;68.60
51988;DHT22;38003;52.012;4.346;2023-01-10T02:44:03;10.40;68.80
51988;DHT22;38003;52.012;4.346;2023-01-10T02:46:36;10.40;69.00
51988;DHT22;38003;52.012;4.346;2023-01-10T02:49:06;10.40;69.00
51988;DHT22;38003;52.012;4.346;2023-01-10T02:51:34;10.40;69.00
51988;DHT22;38003;52.012;4.346;2023-01-10T02:54:05;10.30;69.40
51988;DHT22;38003;52.012;4.346;2023-01-10T02:56:48;10.30;69.50
51988;DHT22;38003;52.012;4.346;2023-01-10T03:02:32;10.30;69.40
51988;DHT22;38003;52.012;4.346;2023-01-10T03:05:11;10.10;69.70
51988;DHT22;38003;52.012;4.346;2023-01-10T03:07:48;10.20;70.00
51988;DHT22;38003;52.012;4.346;2023-01-10T03:10:22;10.20;70.00
51988;DHT22;38003;52.012;4.346;2023-01-10T03:12:56;10.20;69.70
51988;DHT22;38003;52.012;4.346;2023-01-10T03:15:28;10.10;69.90
51988;DHT22;38003;52.012;4.346;2023-01-10T03:17:58;10.10;69.90
51988;DHT22;38003;52.012;4.346;2023-01-10T03:20:31;10.20;69.80
51988;DHT22;38003;52.012;4.346;2023-01-10T03:23:03;10.20;70.40
51988;DHT22;38003;52.012;4.346;2023-01-10T03:25:35;10.20;69.60
51988;DHT22;38003;52.012;4.346;2023-01-10T03:28:07;10.20;69.50
51988;DHT22;38003;52.012;4.346;2023-01-10T03:30:41;10.00;69.70
51988;DHT22;38003;52.012;4.346;2023-01-10T03:33:12;10.10;69.70
51988;DHT22;38003;52.012;4.346;2023-01-10T03:35:49;10.00;69.50
51988;DHT22;38003;52.012;4.346;2023-01-10T03:38:26;10.00;69.90
51988;DHT22;38003;52.012;4.346;2023-01-10T03:40:59;10.00;69.80
51988;DHT22;38003;52.012;4.346;2023-01-10T03:43:36;10.00;69.90
51988;DHT22;38003;52.012;4.346;2023-01-10T03:46:26;9.90;70.10
51988;DHT22;38003;52.012;4.346;2023-01-10T03:48:57;9.90;70.00
51988;DHT22;38003;52.012;4.346;2023-01-10T03:51:28;9.90;70.00
51988;DHT22;38003;52.012;4.346;2023-01-10T03:53:58;10.00;70.00
51988;DHT22;38003;52.012;4.346;2023-01-10T03:56:27;10.00;69.80
51988;DHT22;38003;52.012;4.346;2023-01-10T03:58:54;9.90;70.00
51988;DHT22;38003;52.012;4.346;2023-01-10T04:01:22;9.80;70.00
51988;DHT22;38003;52.012;4.346;2023-01-10T04:03:50;9.70;70.20
51988;DHT22;38003;52.012;4.346;2023-01-10T04:06:18;9.70;70.30
51988;DHT22;38003;52.012;4.346;2023-01-10T04:08:48;10.00;70.50
51988;DHT22;38003;52.012;4.346;2023-01-10T04:11:15;9.80;70.40
51988;DHT22;38003;52.012;4.346;2023-01-10T04:13:43;9.80;70.50
51988;DHT22;38003;52.012;4.346;2023-01-10T04:16:11;9.80;70.40
51988;DHT22;38003;52.012;4.346;2023-01-10T04:18:39;9.90;70.40
51988;DHT22;38003;52.012;4.346;2023-01-10T04:21:07;9.80;70.30
51988;DHT22;38003;52.012;4.346;2023-01-10T04:23:35;9.90;70.20
51988;DHT22;38003;52.012;4.346;2023-01-10T04:26:04;9.90;70.20
51988;DHT22;38003;52.012;4.346;2023-01-10T04:28:32;9.90;70.30
51988;DHT22;38003;52.012;4.346;2023-01-10T04:31:00;9.90;70.20
51988;DHT22;38003;52.012;4.346;2023-01-10T04:33:28;10.00;70.10
51988;DHT22;38003;52.012;4.346;2023-01-10T04:35:56;9.90;70.10
51988;DHT22;38003;52.012;4.346;2023-01-10T04:38:24;9.90;70.20
51988;DHT22;38003;52.012;4.346;2023-01-10T04:40:53;9.90;70.20
51988;DHT22;38003;52.012;4.346;2023-01-10T04:43:23;10.00;70.20
51988;DHT22;38003;52.012;4.346;2023-01-10T04:45:51;10.10;70.30
51988;DHT22;38003;52.012;4.346;2023-01-10T04:48:19;10.00;70.20
51988;DHT22;38003;52.012;4.346;2023-01-10T04:50:50;10.00;70.10
51988;DHT22;38003;52.012;4.346;2023-01-10T04:53:19;10.00;70.10
51988;DHT22;38003;52.012;4.346;2023-01-10T04:55:47;9.90;70.10
51988;DHT22;38003;52.012;4.346;2023-01-10T04:58:15;9.90;70.10
51988;DHT22;38003;52.012;4.346;2023-01-10T05:00:44;10.00;70.20
51988;DHT22;38003;52.012;4.346;2023-01-10T05:03:12;10.00;70.20
51988;DHT22;38003;52.012;4.346;2023-01-10T05:05:41;10.00;70.10
51988;DHT22;38003;52.012;4.346;2023-01-10T05:08:09;10.10;70.20
51988;DHT22;38003;52.012;4.346;2023-01-10T05:10:37;10.00;70.20
51988;DHT22;38003;52.012;4.346;2023-01-10T05:13:05;10.00;70.10
51988;DHT22;38003;52.012;4.346;2023-01-10T05:15:32;10.00;70.20
51988;DHT22;38003;52.012;4.346;2023-01-10T05:18:02;10.00;70.20
51988;DHT22;38003;52.012;4.346;2023-01-10T05:20:30;9.90;70.20
51988;DHT22;38003;52.012;4.346;2023-01-10T05:22:57;9.90;70.10
51988;DHT22;38003;52.012;4.346;2023-01-10T05:25:25;9.80;70.00
51988;DHT22;38003;52.012;4.346;2023-01-10T05:27:53;10.00;70.00
51988;DHT22;38003;52.012;4.346;2023-01-10T05:30:21;10.00;70.00
51988;DHT22;38003;52.012;4.346;2023-01-10T05:32:49;9.90;70.00
51988;DHT22;38003;52.012;4.346;2023-01-10T05:35:18;10.00;70.00
51988;DHT22;38003;52.012;4.346;2023-01-10T05:37:46;10.00;70.00
51988;DHT22;38003;52.012;4.346;2023-01-10T05:40:14;10.00;70.00
51988;DHT22;38003;52.012;4.346;2023-01-10T05:42:42;10.00;70.00
51988;DHT22;38003;52.012;4.346;2023-01-10T05:45:10;10.00;70.60
51988;DHT22;38003;52.012;4.346;2023-01-10T05:47:38;10.10;69.90
51988;DHT22;38003;52.012;4.346;2023-01-10T05:50:07;10.00;70.00
51988;DHT22;38003;52.012;4.346;2023-01-10T05:52:37;10.00;70.00
51988;DHT22;38003;52.012;4.346;2023-01-10T05:55:06;9.90;70.00
51988;DHT22;38003;52.012;4.346;2023-01-10T05:57:34;10.00;70.10
51988;DHT22;38003;52.012;4.346;2023-01-10T06:00:04;10.00;70.10
51988;DHT22;38003;52.012;4.346;2023-01-10T06:02:32;10.00;70.10
51988;DHT22;38003;52.012;4.346;2023-01-10T06:05:00;10.00;70.10
51988;DHT22;38003;52.012;4.346;2023-01-10T06:07:28;10.00;70.00
51988;DHT22;38003;52.012;4.346;2023-01-10T06:09:59;10.00;70.10
51988;DHT22;38003;52.012;4.346;2023-01-10T06:12:27;10.00;70.00
51988;DHT22;38003;52.012;4.346;2023-01-10T06:14:55;9.90;70.00
51988;DHT22;38003;52.012;4.346;2023-01-10T06:17:22;10.00;70.00
51988;DHT22;38003;52.012;4.346;2023-01-10T06:19:51;10.00;70.00
51988;DHT22;38003;52.012;4.346;2023-01-10T06:22:19;10.00;70.10
51988;DHT22;38003;52.012;4.346;2023-01-10T06:24:46;9.90;70.00
51988;DHT22;38003;52.012;4.346;2023-01-10T06:27:16;9.90;70.10
51988;DHT22;38003;52.012;4.346;2023-01-10T06:29:43;10.00;70.20
51988;DHT22;38003;52.012;4.346;2023-01-10T06:32:11;10.00;70.10
51988;DHT22;38003;52.012;4.346;2023-01-10T06:34:39;9.90;70.10
51988;DHT22;38003;52.012;4.346;2023-01-10T06:37:07;10.00;70.10
51988;DHT22;38003;52.012;4.346;2023-01-10T06:39:35;10.10;70.20
51988;DHT22;38003;52.012;4.346;2023-01-10T06:42:03;10.00;70.10
51988;DHT22;38003;52.012;4.346;2023-01-10T06:44:32;10.10;70.00
51988;DHT22;38003;52.012;4.346;2023-01-10T06:47:00;10.10;70.00
51988;DHT22;38003;52.012;4.346;2023-01-10T06:49:28;10.10;70.00
51988;DHT22;38003;52.012;4.346;2023-01-10T06:51:56;10.10;70.00
51988;DHT22;38003;52.012;4.346;2023-01-10T06:54:23;10.00;70.10
51988;DHT22;38003;52.012;4.346;2023-01-10T06:56:51;10.10;70.20
51988;DHT22;38003;52.012;4.346;2023-01-10T06:59:19;10.10;70.20
51988;DHT22;38003;52.012;4.346;2023-01-10T07:01:48;10.20;70.20
51988;DHT22;38003;52.012;4.346;2023-01-10T07:04:17;10.20;70.10
51988;DHT22;38003;52.012;4.346;2023-01-10T07:06:45;10.30;70.10
51988;DHT22;38003;52.012;4.346;2023-01-10T07:09:12;10.20;70.10
51988;DHT22;38003;52.012;4.346;2023-01-10T07:11:40;10.30;70.30
51988;DHT22;38003;52.012;4.346;2023-01-10T07:14:08;10.20;70.40
51988;DHT22;38003;52.012;4.346;2023-01-10T07:16:36;10.20;70.40
51988;DHT22;38003;52.012;4.346;2023-01-10T07:19:05;10.20;70.40
51988;DHT22;38003;52.012;4.346;2023-01-10T07:21:33;10.20;70.30
51988;DHT22;38003;52.012;4.346;2023-01-10T07:24:01;10.20;70.40
51988;DHT22;38003;52.012;4.346;2023-01-10T07:26:29;10.20;70.40
51988;DHT22;38003;52.012;4.346;2023-01-10T07:28:57;10.20;70.50
51988;DHT22;38003;52.012;4.346;2023-01-10T07:31:25;10.10;70.60
51988;DHT22;38003;52.012;4.346;2023-01-10T07:33:53;10.20;70.50
51988;DHT22;38003;52.012;4.346;2023-01-10T07:36:22;10.20;70.40
51988;DHT22;38003;52.012;4.346;2023-01-10T07:38:50;10.40;70.60
51988;DHT22;38003;52.012;4.346;2023-01-10T07:41:18;10.10;70.50
51988;DHT22;38003;52.012;4.346;2023-01-10T07:43:46;10.20;70.50
51988;DHT22;38003;52.012;4.346;2023-01-10T07:46:14;10.10;70.60
51988;DHT22;38003;52.012;4.346;2023-01-10T07:48:42;10.00;70.70
51988;DHT22;38003;52.012;4.346;2023-01-10T07:51:11;10.00;70.70
51988;DHT22;38003;52.012;4.346;2023-01-10T07:53:41;10.00;70.60
51988;DHT22;38003;52.012;4.346;2023-01-10T07:56:08;10.20;70.50
51988;DHT22;38003;52.012;4.346;2023-01-10T07:58:36;10.10;70.50
51988;DHT22;38003;52.012;4.346;2023-01-10T08:01:05;9.90;70.50
51988;DHT22;38003;52.012;4.346;2023-01-10T08:03:33;9.80;71.10
51988;DHT22;38003;52.012;4.346;2023-01-10T08:06:04;9.60;70.90
51988;DHT22;38003;52.012;4.346;2023-01-10T08:08:32;9.60;70.80
51988;DHT22;38003;52.012;4.346;2023-01-10T08:11:02;9.50;70.90
51988;DHT22;38003;52.012;4.346;2023-01-10T08:13:31;9.50;71.00
51988;DHT22;38003;52.012;4.346;2023-01-10T08:16:02;9.60;70.80
51988;DHT22;38003;52.012;4.346;2023-01-10T08:18:30;9.50;70.80
51988;DHT22;38003;52.012;4.346;2023-01-10T08:20:59;9.60;70.80
51988;DHT22;38003;52.012;4.346;2023-01-10T08:23:26;9.60;70.80
51988;DHT22;38003;52.012;4.346;2023-01-10T08:25:57;9.70;70.70
51988;DHT22;38003;52.012;4.346;2023-01-10T08:28:26;9.50;70.80
51988;DHT22;38003;52.012;4.346;2023-01-10T08:30:55;9.60;70.80
51988;DHT22;38003;52.012;4.346;2023-01-10T08:33:23;9.50;70.90
51988;DHT22;38003;52.012;4.346;2023-01-10T08:35:53;9.40;70.90
51988;DHT22;38003;52.012;4.346;2023-01-10T08:38:20;9.50;70.80
51988;DHT22;38003;52.012;4.346;2023-01-10T08:40:48;9.60;70.80
51988;DHT22;38003;52.012;4.346;2023-01-10T08:43:16;9.50;70.80
51988;DHT22;38003;52.012;4.346;2023-01-10T08:45:45;9.30;70.70
51988;DHT22;38003;52.012;4.346;2023-01-10T08:48:13;9.60;70.80
51988;DHT22;38003;52.012;4.346;2023-01-10T08:50:41;9.40;71.00
51988;DHT22;38003;52.012;4.346;2023-01-10T08:53:09;9.50;71.00
51988;DHT22;38003;52.012;4.346;2023-01-10T08:55:39;9.50;71.00
51988;DHT22;38003;52.012;4.346;2023-01-10T08:58:08;9.60;71.00
51988;DHT22;38003;52.012;4.346;2023-01-10T09:00:36;9.50;71.10
51988;DHT22;38003;52.012;4.346;2023-01-10T09:03:06;9.50;71.00
51988;DHT22;38003;52.012;4.346;2023-01-10T09:05:34;9.60;70.80
51988;DHT22;38003;52.012;4.346;2023-01-10T09:08:03;9.60;70.80
51988;DHT22;38003;52.012;4.346;2023-01-10T09:10:31;9.60;70.90
51988;DHT22;38003;52.012;4.346;2023-01-10T09:12:59;9.60;70.90
51988;DHT22;38003;52.012;4.346;2023-01-10T09:15:30;9.60;70.90
51988;DHT22;38003;52.012;4.346;2023-01-10T09:17:59;9.60;71.10
51988;DHT22;38003;52.012;4.346;2023-01-10T09:20:29;9.60;71.10
51988;DHT22;38003;52.012;4.346;2023-01-10T09:22:58;9.60;71.30
51988;DHT22;38003;52.012;4.346;2023-01-10T09:25:30;9.50;71.20
51988;DHT22;38003;52.012;4.346;2023-01-10T09:28:00;9.60;71.10
51988;DHT22;38003;52.012;4.346;2023-01-10T09:30:29;9.60;71.10
51988;DHT22;38003;52.012;4.346;2023-01-10T09:32:58;9.60;71.80
51988;DHT22;38003;52.012;4.346;2023-01-10T09:35:28;9.50;71.20
51988;DHT22;38003;52.012;4.346;2023-01-10T09:37:58;9.50;71.20
51988;DHT22;38003;52.012;4.346;2023-01-10T09:40:36;9.40;71.30
51988;DHT22;38003;52.012;4.346;2023-01-10T09:43:12;9.30;71.20
51988;DHT22;38003;52.012;4.346;2023-01-10T09:45:50;9.30;71.40
51988;DHT22;38003;52.012;4.346;2023-01-10T09:48:24;9.30;70.90
51988;DHT22;38003;52.012;4.346;2023-01-10T09:51:04;9.30;71.00
51988;DHT22;38003;52.012;4.346;2023-01-10T09:53:40;9.40;71.10
51988;DHT22;38003;52.012;4.346;2023-01-10T09:56:08;9.50;70.80
51988;DHT22;38003;52.012;4.346;2023-01-10T09:58:39;9.50;70.90
51988;DHT22;38003;52.012;4.346;2023-01-10T10:01:13;9.50;70.90
51988;DHT22;38003;52.012;4.346;2023-01-10T10:03:47;9.20;71.50
51988;DHT22;38003;52.012;4.346;2023-01-10T10:06:21;9.40;71.10
51988;DHT22;38003;52.012;4.346;2023-01-10T10:08:50;9.50;71.00
51988;DHT22;38003;52.012;4.346;2023-01-10T10:11:38;9.30;71.00
51988;DHT22;38003;52.012;4.346;2023-01-10T10:14:20;9.40;71.10
51988;DHT22;38003;52.012;4.346;2023-01-10T10:17:02;9.30;70.90
51988;DHT22;38003;52.012;4.346;2023-01-10T10:19:44;9.20;71.00
51988;DHT22;38003;52.012;4.346;2023-01-10T10:22:25;9.30;70.60
51988;DHT22;38003;52.012;4.346;2023-01-10T10:25:03;9.50;70.80
51988;DHT22;38003;52.012;4.346;2023-01-10T10:27:35;9.30;70.60
51988;DHT22;38003;52.012;4.346;2023-01-10T10:30:18;9.30;70.70
51988;DHT22;38003;52.012;4.346;2023-01-10T10:33:19;9.30;70.90
51988;DHT22;38003;52.012;4.346;2023-01-10T10:35:54;9.20;70.60
51988;DHT22;38003;52.012;4.346;2023-01-10T10:38:26;9.40;70.60
51988;DHT22;38003;52.012;4.346;2023-01-10T10:40:57;9.40;70.50
51988;DHT22;38003;52.012;4.346;2023-01-10T10:43:30;9.60;70.60
51988;DHT22;38003;52.012;4.346;2023-01-10T10:46:02;9.40;70.60
51988;DHT22;38003;52.012;4.346;2023-01-10T10:48:33;9.40;70.80
51988;DHT22;38003;52.012;4.346;2023-01-10T10:51:06;9.30;70.80
51988;DHT22;38003;52.012;4.346;2023-01-10T10:53:36;9.40;70.80
51988;DHT22;38003;52.012;4.346;2023-01-10T10:56:06;9.30;70.90
51988;DHT22;38003;52.012;4.346;2023-01-10T10:58:40;9.30;70.70
51988;DHT22;38003;52.012;4.346;2023-01-10T11:01:10;9.40;70.70
51988;DHT22;38003;52.012;4.346;2023-01-10T11:03:43;9.40;70.60
51988;DHT22;38003;52.012;4.346;2023-01-10T11:06:13;9.20;70.60
51988;DHT22;38003;52.012;4.346;2023-01-10T11:08:47;9.20;71.60
51988;DHT22;38003;52.012;4.346;2023-01-10T11:11:19;9.20;70.60
51988;DHT22;38003;52.012;4.346;2023-01-10T11:13:53;9.30;70.70
51988;DHT22;38003;52.012;4.346;2023-01-10T11:16:24;9.40;71.00
51988;DHT22;38003;52.012;4.346;2023-01-10T11:19:19;9.40;70.80
51988;DHT22;38003;52.012;4.346;2023-01-10T11:21:51;9.70;70.60
51988;DHT22;38003;52.012;4.346;2023-01-10T11:24:26;9.40;70.80
51988;DHT22;38003;52.012;4.346;2023-01-10T11:26:55;9.40;70.80
51988;DHT22;38003;52.012;4.346;2023-01-10T11:29:26;9.50;70.70
51988;DHT22;38003;52.012;4.346;2023-01-10T11:31:55;9.40;70.80
51988;DHT22;38003;52.012;4.346;2023-01-10T11:34:25;9.50;70.80
51988;DHT22;38003;52.012;4.346;2023-01-10T11:36:57;9.50;70.80
51988;DHT22;38003;52.012;4.346;2023-01-10T11:39:28;9.70;70.70
51988;DHT22;38003;52.012;4.346;2023-01-10T11:42:00;9.70;70.50
51988;DHT22;38003;52.012;4.346;2023-01-10T11:44:44;9.60;70.60
51988;DHT22;38003;52.012;4.346;2023-01-10T11:47:12;9.60;70.80
51988;DHT22;38003;52.012;4.346;2023-01-10T11:49:43;9.60;70.80
51988;DHT22;38003;52.012;4.346;2023-01-10T11:52:17;9.90;70.80
51988;DHT22;38003;52.012;4.346;2023-01-10T11:54:48;9.70;70.50
51988;DHT22;38003;52.012;4.346;2023-01-10T11:57:18;9.90;70.70
51988;DHT22;38003;52.012;4.346;2023-01-10T11:59:52;9.80;70.40
51988;DHT22;38003;52.012;4.346;2023-01-10T12:02:23;9.70;70.40
51988;DHT22;38003;52.012;4.346;2023-01-10T12:04:53;9.70;70.70
51988;DHT22;38003;52.012;4.346;2023-01-10T12:07:22;9.80;70.60
51988;DHT22;38003;52.012;4.346;2023-01-10T12:09:57;9.90;70.30
51988;DHT22;38003;52.012;4.346;2023-01-10T12:12:27;9.90;70.40
51988;DHT22;38003;52.012;4.346;2023-01-10T12:14:57;9.90;70.00
51988;DHT22;38003;52.012;4.346;2023-01-10T12:17:28;10.00;70.40
51988;DHT22;38003;52.012;4.346;2023-01-10T12:19:59;9.80;70.10
51988;DHT22;38003;52.012;4.346;2023-01-10T12:22:30;9.80;70.20
51988;DHT22;38003;52.012;4.346;2023-01-10T12:25:02;9.70;70.40
51988;DHT22;38003;52.012;4.346;2023-01-10T12:27:31;9.80;70.40
51988;DHT22;38003;52.012;4.346;2023-01-10T12:30:04;9.90;70.20
51988;DHT22;38003;52.012;4.346;2023-01-10T12:32:37;9.80;70.10
51988;DHT22;38003;52.012;4.346;2023-01-10T12:35:10;9.80;70.30
51988;DHT22;38003;52.012;4.346;2023-01-10T12:37:45;9.50;70.30
51988;DHT22;38003;52.012;4.346;2023-01-10T12:40:20;9.50;70.50
51988;DHT22;38003;52.012;4.346;2023-01-10T12:42:54;9.60;70.70
51988;DHT22;38003;52.012;4.346;2023-01-10T12:45:44;9.40;70.70
51988;DHT22;38003;52.012;4.346;2023-01-10T12:48:18;9.50;70.90
51988;DHT22;38003;52.012;4.346;2023-01-10T12:50:50;9.60;70.90
51988;DHT22;38003;52.012;4.346;2023-01-10T12:53:32;9.60;71.20
51988;DHT22;38003;52.012;4.346;2023-01-10T12:56:04;9.30;71.30
51988;DHT22;38003;52.012;4.346;2023-01-10T12:58:38;9.30;72.10
51988;DHT22;38003;52.012;4.346;2023-01-10T13:01:11;9.40;72.00
51988;DHT22;38003;52.012;4.346;2023-01-10T13:03:40;9.30;72.50
51988;DHT22;38003;52.012;4.346;2023-01-10T13:06:15;9.20;72.80
51988;DHT22;38003;52.012;4.346;2023-01-10T13:08:46;9.20;73.10
51988;DHT22;38003;52.012;4.346;2023-01-10T13:11:17;9.30;73.10
51988;DHT22;38003;52.012;4.346;2023-01-10T13:13:53;9.30;73.50
51988;DHT22;38003;52.012;4.346;2023-01-10T13:16:29;9.40;73.70
51988;DHT22;38003;52.012;4.346;2023-01-10T13:19:15;9.30;73.50
51988;DHT22;38003;52.012;4.346;2023-01-10T13:21:49;9.30;73.80
51988;DHT22;38003;52.012;4.346;2023-01-10T13:24:21;9.50;73.80
51988;DHT22;38003;52.012;4.346;2023-01-10T13:26:52;9.20;73.70
51988;DHT22;38003;52.012;4.346;2023-01-10T13:29:23;9.10;74.30
51988;DHT22;38003;52.012;4.346;2023-01-10T13:31:52;9.30;73.70
51988;DHT22;38003;52.012;4.346;2023-01-10T13:34:26;9.00;74.50
51988;DHT22;38003;52.012;4.346;2023-01-10T13:36:56;9.10;74.60
51988;DHT22;38003;52.012;4.346;2023-01-10T13:39:29;9.10;74.10
51988;DHT22;38003;52.012;4.346;2023-01-10T13:42:29;9.20;74.00
51988;DHT22;38003;52.012;4.346;2023-01-10T13:45:24;9.00;75.30
51988;DHT22;38003;52.012;4.346;2023-01-10T13:48:23;9.10;74.80
51988;DHT22;38003;52.012;4.346;2023-01-10T13:51:05;9.00;75.00
51988;DHT22;38003;52.012;4.346;2023-01-10T13:53:55;9.10;74.80
51988;DHT22;38003;52.012;4.346;2023-01-10T13:56:38;8.90;75.80
51988;DHT22;38003;52.012;4.346;2023-01-10T14:02:32;8.70;76.80
51988;DHT22;38003;52.012;4.346;2023-01-10T14:05:02;8.80;76.30
51988;DHT22;38003;52.012;4.346;2023-01-10T14:07:33;8.90;75.90
51988;DHT22;38003;52.012;4.346;2023-01-10T14:10:10;8.80;77.40
51988;DHT22;38003;52.012;4.346;2023-01-10T14:12:49;8.90;77.70
51988;DHT22;38003;52.012;4.346;2023-01-10T14:15:25;8.80;76.90
51988;DHT22;38003;52.012;4.346;2023-01-10T14:17:58;8.90;76.90
51988;DHT22;38003;52.012;4.346;2023-01-10T14:20:28;8.80;77.50
51988;DHT22;38003;52.012;4.346;2023-01-10T14:23:00;8.80;77.20
51988;DHT22;38003;52.012;4.346;2023-01-10T14:25:30;8.80;77.00
51988;DHT22;38003;52.012;4.346;2023-01-10T14:27:59;8.80;77.20
51988;DHT22;38003;52.012;4.346;2023-01-10T14:30:31;8.80;78.00
51988;DHT22;38003;52.012;4.346;2023-01-10T14:33:03;8.80;77.80
51988;DHT22;38003;52.012;4.346;2023-01-10T14:35:36;8.70;78.50
51988;DHT22;38003;52.012;4.346;2023-01-10T14:38:07;8.70;77.90
51988;DHT22;38003;52.012;4.346;2023-01-10T14:40:42;8.60;79.10
51988;DHT22;38003;52.012;4.346;2023-01-10T14:43:13;8.60;80.20
51988;DHT22;38003;52.012;4.346;2023-01-10T14:45:48;8.60;79.30
51988;DHT22;38003;52.012;4.346;2023-01-10T14:48:27;8.60;79.80
51988;DHT22;38003;52.012;4.346;2023-01-10T14:51:15;8.70;79.70
51988;DHT22;38003;52.012;4.346;2023-01-10T14:53:43;8.80;79.10
51988;DHT22;38003;52.012;4.346;2023-01-10T14:56:19;8.90;78.80
51988;DHT22;38003;52.012;4.346;2023-01-10T14:58:47;8.70;80.20
51988;DHT22;38003;52.012;4.346;2023-01-10T15:01:21;8.80;80.60
51988;DHT22;38003;52.012;4.346;2023-01-10T15:03:51;8.70;80.40
51988;DHT22;38003;52.012;4.346;2023-01-10T15:06:19;8.60;80.80
51988;DHT22;38003;52.012;4.346;2023-01-10T15:08:55;8.70;80.60
51988;DHT22;38003;52.012;4.346;2023-01-10T15:11:25;8.80;80.10
51988;DHT22;38003;52.012;4.346;2023-01-10T15:13:57;8.70;81.10
51988;DHT22;38003;52.012;4.346;2023-01-10T15:16:27;8.60;81.30
51988;DHT22;38003;52.012;4.346;2023-01-10T15:18:56;8.60;81.80
51988;DHT22;38003;52.012;4.346;2023-01-10T15:21:24;8.50;82.90
51988;DHT22;38003;52.012;4.346;2023-01-10T15:23:52;8.70;82.30
51988;DHT22;38003;52.012;4.346;2023-01-10T15:26:26;8.70;80.90
51988;DHT22;38003;52.012;4.346;2023-01-10T15:29:08;8.70;81.50
51988;DHT22;38003;52.012;4.346;2023-01-10T15:31:39;8.70;81.80
51988;DHT22;38003;52.012;4.346;2023-01-10T15:34:09;8.70;81.20
51988;DHT22;38003;52.012;4.346;2023-01-10T15:36:42;8.90;81.80
51988;DHT22;38003;52.012;4.346;2023-01-10T15:39:16;8.90;81.30
51988;DHT22;38003;52.012;4.346;2023-01-10T15:41:45;8.90;80.80
51988;DHT22;38003;52.012;4.346;2023-01-10T15:44:38;8.70;81.70
51988;DHT22;38003;52.012;4.346;2023-01-10T15:47:33;8.80;82.00
51988;DHT22;38003;52.012;4.346;2023-01-10T15:50:02;8.80;82.40
51988;DHT22;38003;52.012;4.346;2023-01-10T15:52:30;8.70;82.20
51988;DHT22;38003;52.012;4.346;2023-01-10T15:54:58;8.70;82.10
51988;DHT22;38003;52.012;4.346;2023-01-10T15:57:29;8.80;82.60
51988;DHT22;38003;52.012;4.346;2023-01-10T15:59:59;8.70;82.70
51988;DHT22;38003;52.012;4.346;2023-01-10T16:02:29;8.80;82.60
51988;DHT22;38003;52.012;4.346;2023-01-10T16:05:06;8.80;82.60
51988;DHT22;38003;52.012;4.346;2023-01-10T16:07:41;8.60;83.40
51988;DHT22;38003;52.012;4.346;2023-01-10T16:10:16;8.60;83.80
51988;DHT22;38003;52.012;4.346;2023-01-10T16:12:46;8.70;83.10
51988;DHT22;38003;52.012;4.346;2023-01-10T16:15:32;9.10;81.80
51988;DHT22;38003;52.012;4.346;2023-01-10T16:18:01;8.80;83.80